Impacts TAF Board INFO
FOR SITUATIONAL AWARENESS. NOT TO BE USED FOR FLIGHT PLANNING PURPOSES.
IDs:

KSAN - San Diego Intl Arpt, CA, US

Issued at 0125 UTC 19 Feb 2018
Updated at 0351 UTC 19 Feb 2018
Potential Impact None Slight Moderate High
Time<<20/04Z 20/05Z 20/06Z 20/07Z 20/08Z 20/09Z 20/10Z 20/11Z 20/12Z 20/13Z 20/14Z 20/15Z 20/16Z
Type PRVL PRVL
VIS >6 >6
CIG -- --
Cover SCT SCT
FltCat VFR VFR
WX -- --
WDir 290 290
WSpd 10 10
WGst -- --

Raw TAF
KSAN 190125Z 1901/2006 23007KT P6SM BKN025
  FM190700 25010KT 6SM -SHRA BKN020 OVC035
  FM191000 25015G25KT P6SM VCSH BKN025 BKN035
  FM191600 29022G32KT P6SM BKN035
  FM200100 29010KT P6SM SCT035


METAR Board
Radar Display
Forecast Discussion

FOR SITUATIONAL AWARENESS. NOT TO BE USED FOR FLIGHT PLANNING PURPOSES.